sensor_id;sensor_type;location;lat;lon;timestamp;pressure;altitude;pressure_sealevel;temperature;humidity
43039;BME280;62252;50.668;19.530;2022-10-16T00:08:16;98186.91;;;10.32;100.00
43039;BME280;62252;50.668;19.530;2022-10-16T00:10:49;98190.09;;;10.37;100.00
43039;BME280;62252;50.668;19.530;2022-10-16T00:13:34;98191.56;;;10.27;100.00
43039;BME280;62252;50.668;19.530;2022-10-16T00:16:05;98191.75;;;10.24;100.00
43039;BME280;62252;50.668;19.530;2022-10-16T00:27:50;98185.56;;;10.25;100.00
43039;BME280;62252;50.668;19.530;2022-10-16T00:30:20;98186.91;;;10.32;100.00
43039;BME280;62252;50.668;19.530;2022-10-16T00:32:51;98194.78;;;10.46;100.00
43039;BME280;62252;50.668;19.530;2022-10-16T00:41:45;98183.78;;;10.39;100.00
43039;BME280;62252;50.668;19.530;2022-10-16T00:52:41;98190.06;;;10.23;100.00
43039;BME280;62252;50.668;19.530;2022-10-16T00:55:26;98200.22;;;10.15;100.00
43039;BME280;62252;50.668;19.530;2022-10-16T01:03:54;98209.44;;;10.36;100.00
43039;BME280;62252;50.668;19.530;2022-10-16T01:06:24;98207.72;;;10.35;100.00
43039;BME280;62252;50.668;19.530;2022-10-16T01:14:49;98209.16;;;10.26;100.00
43039;BME280;62252;50.668;19.530;2022-10-16T01:17:23;98222.31;;;10.26;100.00
43039;BME280;62252;50.668;19.530;2022-10-16T01:20:11;98211.47;;;10.03;100.00
43039;BME280;62252;50.668;19.530;2022-10-16T01:22:57;98212.28;;;9.89;100.00
43039;BME280;62252;50.668;19.530;2022-10-16T01:25:58;98206.19;;;10.03;100.00
43039;BME280;62252;50.668;19.530;2022-10-16T01:28:49;98208.00;;;9.87;100.00
43039;BME280;62252;50.668;19.530;2022-10-16T01:31:22;98215.94;;;10.01;100.00
43039;BME280;62252;50.668;19.530;2022-10-16T01:33:56;98222.09;;;9.86;100.00
43039;BME280;62252;50.668;19.530;2022-10-16T01:39:28;98203.88;;;9.83;100.00
43039;BME280;62252;50.668;19.530;2022-10-16T01:42:09;98214.97;;;9.58;100.00
43039;BME280;62252;50.668;19.530;2022-10-16T01:44:43;98215.91;;;9.42;100.00
43039;BME280;62252;50.668;19.530;2022-10-16T01:47:16;98212.97;;;9.48;100.00
43039;BME280;62252;50.668;19.530;2022-10-16T01:49:47;98208.03;;;9.42;100.00
43039;BME280;62252;50.668;19.530;2022-10-16T01:52:18;98217.94;;;9.52;100.00
43039;BME280;62252;50.668;19.530;2022-10-16T01:57:47;98209.72;;;9.43;100.00
43039;BME280;62252;50.668;19.530;2022-10-16T02:00:21;98211.84;;;9.81;100.00
43039;BME280;62252;50.668;19.530;2022-10-16T02:02:57;98213.47;;;9.84;100.00
43039;BME280;62252;50.668;19.530;2022-10-16T02:05:42;98210.72;;;9.71;100.00
43039;BME280;62252;50.668;19.530;2022-10-16T02:08:14;98213.34;;;9.71;100.00
43039;BME280;62252;50.668;19.530;2022-10-16T02:14:01;98219.13;;;9.92;100.00
43039;BME280;62252;50.668;19.530;2022-10-16T02:16:54;98215.91;;;9.87;100.00
43039;BME280;62252;50.668;19.530;2022-10-16T02:19:24;98228.06;;;10.03;100.00
43039;BME280;62252;50.668;19.530;2022-10-16T02:22:00;98227.44;;;10.28;100.00
43039;BME280;62252;50.668;19.530;2022-10-16T02:24:47;98223.47;;;10.07;100.00
43039;BME280;62252;50.668;19.530;2022-10-16T02:27:44;98218.25;;;10.21;100.00
43039;BME280;62252;50.668;19.530;2022-10-16T02:30:30;98220.88;;;10.35;100.00
43039;BME280;62252;50.668;19.530;2022-10-16T02:33:16;98222.88;;;10.02;100.00
43039;BME280;62252;50.668;19.530;2022-10-16T02:35:56;98226.09;;;10.07;100.00
43039;BME280;62252;50.668;19.530;2022-10-16T02:38:27;98227.31;;;10.01;100.00
43039;BME280;62252;50.668;19.530;2022-10-16T02:40:59;98232.66;;;10.00;100.00
43039;BME280;62252;50.668;19.530;2022-10-16T02:43:31;98234.25;;;10.02;100.00
43039;BME280;62252;50.668;19.530;2022-10-16T02:46:00;98231.72;;;10.01;100.00
43039;BME280;62252;50.668;19.530;2022-10-16T02:48:32;98231.75;;;9.85;100.00
43039;BME280;62252;50.668;19.530;2022-10-16T02:51:22;98233.72;;;10.25;100.00
43039;BME280;62252;50.668;19.530;2022-10-16T02:57:05;98234.91;;;9.92;100.00
43039;BME280;62252;50.668;19.530;2022-10-16T03:02:11;98233.38;;;9.88;100.00
43039;BME280;62252;50.668;19.530;2022-10-16T03:04:44;98241.41;;;10.14;100.00
43039;BME280;62252;50.668;19.530;2022-10-16T03:07:13;98234.59;;;9.96;100.00
43039;BME280;62252;50.668;19.530;2022-10-16T03:12:28;98246.53;;;10.02;100.00
43039;BME280;62252;50.668;19.530;2022-10-16T03:14:58;98249.91;;;10.19;100.00
43039;BME280;62252;50.668;19.530;2022-10-16T03:17:28;98244.72;;;9.88;100.00
43039;BME280;62252;50.668;19.530;2022-10-16T03:20:01;98261.59;;;9.84;100.00
43039;BME280;62252;50.668;19.530;2022-10-16T03:22:41;98266.50;;;10.20;100.00
43039;BME280;62252;50.668;19.530;2022-10-16T03:25:19;98253.69;;;10.00;100.00
43039;BME280;62252;50.668;19.530;2022-10-16T03:27:50;98256.13;;;9.73;100.00
43039;BME280;62252;50.668;19.530;2022-10-16T03:30:29;98259.44;;;9.77;100.00
43039;BME280;62252;50.668;19.530;2022-10-16T03:33:01;98262.06;;;9.77;100.00
43039;BME280;62252;50.668;19.530;2022-10-16T03:35:33;98258.50;;;9.78;100.00
43039;BME280;62252;50.668;19.530;2022-10-16T03:38:03;98256.16;;;10.03;100.00
43039;BME280;62252;50.668;19.530;2022-10-16T03:40:33;98263.16;;;9.73;100.00
43039;BME280;62252;50.668;19.530;2022-10-16T03:45:42;98269.00;;;9.78;100.00
43039;BME280;62252;50.668;19.530;2022-10-16T03:48:12;98276.31;;;9.73;100.00
43039;BME280;62252;50.668;19.530;2022-10-16T03:50:47;98279.28;;;9.96;100.00
43039;BME280;62252;50.668;19.530;2022-10-16T03:53:18;98275.06;;;9.94;100.00
43039;BME280;62252;50.668;19.530;2022-10-16T03:55:48;98278.19;;;10.00;100.00
43039;BME280;62252;50.668;19.530;2022-10-16T03:58:17;98274.72;;;10.00;100.00
43039;BME280;62252;50.668;19.530;2022-10-16T04:00:47;98273.06;;;9.83;100.00
43039;BME280;62252;50.668;19.530;2022-10-16T04:03:17;98269.50;;;9.84;100.00
43039;BME280;62252;50.668;19.530;2022-10-16T04:05:50;98268.91;;;10.09;100.00
43039;BME280;62252;50.668;19.530;2022-10-16T04:08:24;98273.91;;;10.13;100.00
43039;BME280;62252;50.668;19.530;2022-10-16T04:10:53;98282.38;;;9.89;100.00
43039;BME280;62252;50.668;19.530;2022-10-16T04:13:27;98272.06;;;10.29;100.00
43039;BME280;62252;50.668;19.530;2022-10-16T04:15:57;98279.56;;;10.21;100.00
43039;BME280;62252;50.668;19.530;2022-10-16T04:18:27;98284.97;;;10.48;100.00
43039;BME280;62252;50.668;19.530;2022-10-16T04:21:16;98279.38;;;10.24;100.00
43039;BME280;62252;50.668;19.530;2022-10-16T04:23:47;98275.88;;;10.10;100.00
43039;BME280;62252;50.668;19.530;2022-10-16T04:26:43;98277.72;;;10.51;100.00
43039;BME280;62252;50.668;19.530;2022-10-16T04:29:26;98277.59;;;10.25;100.00
43039;BME280;62252;50.668;19.530;2022-10-16T04:31:55;98282.44;;;10.03;100.00
43039;BME280;62252;50.668;19.530;2022-10-16T04:34:25;98280.28;;;10.09;100.00
43039;BME280;62252;50.668;19.530;2022-10-16T04:37:00;98285.13;;;10.01;100.00
43039;BME280;62252;50.668;19.530;2022-10-16T04:58:21;98283.00;;;10.08;100.00
43039;BME280;62252;50.668;19.530;2022-10-16T05:03:58;98287.06;;;9.84;100.00
43039;BME280;62252;50.668;19.530;2022-10-16T05:12:47;98284.22;;;9.87;100.00
43039;BME280;62252;50.668;19.530;2022-10-16T05:15:21;98280.72;;;10.02;100.00
43039;BME280;62252;50.668;19.530;2022-10-16T05:17:52;98288.97;;;9.96;100.00
43039;BME280;62252;50.668;19.530;2022-10-16T05:20:26;98279.69;;;10.34;100.00
43039;BME280;62252;50.668;19.530;2022-10-16T05:22:55;98282.06;;;10.09;100.00
43039;BME280;62252;50.668;19.530;2022-10-16T05:25:25;98280.47;;;9.91;100.00
43039;BME280;62252;50.668;19.530;2022-10-16T05:27:55;98278.94;;;10.02;100.00
43039;BME280;62252;50.668;19.530;2022-10-16T05:30:27;98269.59;;;10.12;100.00
43039;BME280;62252;50.668;19.530;2022-10-16T05:32:56;98269.97;;;10.20;100.00
43039;BME280;62252;50.668;19.530;2022-10-16T05:38:38;98280.44;;;10.36;100.00
43039;BME280;62252;50.668;19.530;2022-10-16T05:44:13;98296.34;;;10.62;100.00
43039;BME280;62252;50.668;19.530;2022-10-16T05:59:14;98321.34;;;11.13;100.00
43039;BME280;62252;50.668;19.530;2022-10-16T06:04:21;98326.88;;;11.08;100.00
43039;BME280;62252;50.668;19.530;2022-10-16T06:06:50;98320.28;;;11.29;100.00
43039;BME280;62252;50.668;19.530;2022-10-16T06:16:01;98329.97;;;11.29;100.00
43039;BME280;62252;50.668;19.530;2022-10-16T06:18:32;98338.50;;;11.47;100.00
43039;BME280;62252;50.668;19.530;2022-10-16T06:21:08;98338.69;;;11.43;100.00
43039;BME280;62252;50.668;19.530;2022-10-16T06:23:39;98350.63;;;11.63;100.00
43039;BME280;62252;50.668;19.530;2022-10-16T06:29:24;98349.50;;;11.53;100.00
43039;BME280;62252;50.668;19.530;2022-10-16T06:31:57;98357.13;;;11.58;100.00
43039;BME280;62252;50.668;19.530;2022-10-16T06:34:26;98356.47;;;11.54;100.00
43039;BME280;62252;50.668;19.530;2022-10-16T06:39:41;98355.25;;;12.00;100.00
43039;BME280;62252;50.668;19.530;2022-10-16T06:42:11;98355.16;;;12.02;100.00
43039;BME280;62252;50.668;19.530;2022-10-16T06:44:41;98361.38;;;11.87;100.00
43039;BME280;62252;50.668;19.530;2022-10-16T06:47:13;98362.97;;;11.89;100.00
43039;BME280;62252;50.668;19.530;2022-10-16T06:49:42;98362.56;;;11.69;100.00
43039;BME280;62252;50.668;19.530;2022-10-16T06:52:11;98366.28;;;12.19;100.00
43039;BME280;62252;50.668;19.530;2022-10-16T06:54:41;98370.03;;;12.03;100.00
43039;BME280;62252;50.668;19.530;2022-10-16T06:57:10;98362.88;;;12.44;100.00
43039;BME280;62252;50.668;19.530;2022-10-16T06:59:39;98370.19;;;12.40;100.00
43039;BME280;62252;50.668;19.530;2022-10-16T07:02:08;98375.66;;;12.37;100.00
43039;BME280;62252;50.668;19.530;2022-10-16T07:04:40;98372.66;;;12.56;100.00
43039;BME280;62252;50.668;19.530;2022-10-16T07:07:09;98363.16;;;12.66;100.00
43039;BME280;62252;50.668;19.530;2022-10-16T07:09:38;98366.75;;;12.65;100.00
43039;BME280;62252;50.668;19.530;2022-10-16T07:12:07;98373.41;;;12.83;100.00
43039;BME280;62252;50.668;19.530;2022-10-16T07:14:49;98372.81;;;12.79;100.00
43039;BME280;62252;50.668;19.530;2022-10-16T07:23:49;98379.50;;;13.22;100.00
43039;BME280;62252;50.668;19.530;2022-10-16T07:32:31;98390.97;;;12.96;100.00
43039;BME280;62252;50.668;19.530;2022-10-16T07:35:00;98384.16;;;13.06;100.00
43039;BME280;62252;50.668;19.530;2022-10-16T07:37:29;98388.16;;;13.24;100.00
43039;BME280;62252;50.668;19.530;2022-10-16T07:40:01;98396.72;;;13.15;100.00
43039;BME280;62252;50.668;19.530;2022-10-16T07:42:30;98390.25;;;13.44;100.00
43039;BME280;62252;50.668;19.530;2022-10-16T07:44:59;98396.31;;;13.21;100.00
43039;BME280;62252;50.668;19.530;2022-10-16T07:47:28;98397.66;;;13.39;100.00
43039;BME280;62252;50.668;19.530;2022-10-16T07:49:57;98405.38;;;13.67;100.00
43039;BME280;62252;50.668;19.530;2022-10-16T07:52:26;98408.44;;;13.36;100.00
43039;BME280;62252;50.668;19.530;2022-10-16T07:54:55;98399.44;;;13.51;100.00
43039;BME280;62252;50.668;19.530;2022-10-16T08:06:16;98411.06;;;13.74;100.00
43039;BME280;62252;50.668;19.530;2022-10-16T08:08:46;98418.88;;;13.88;100.00
43039;BME280;62252;50.668;19.530;2022-10-16T08:14:20;98424.66;;;13.93;100.00
43039;BME280;62252;50.668;19.530;2022-10-16T08:19:53;98424.41;;;14.08;100.00
43039;BME280;62252;50.668;19.530;2022-10-16T08:25:38;98430.84;;;14.17;100.00
43039;BME280;62252;50.668;19.530;2022-10-16T08:28:08;98418.00;;;14.36;100.00
43039;BME280;62252;50.668;19.530;2022-10-16T08:30:38;98404.88;;;14.34;100.00
43039;BME280;62252;50.668;19.530;2022-10-16T08:33:07;98407.41;;;14.71;100.00
43039;BME280;62252;50.668;19.530;2022-10-16T08:35:37;98408.47;;;14.92;100.00
43039;BME280;62252;50.668;19.530;2022-10-16T08:38:06;98404.41;;;15.10;100.00
43039;BME280;62252;50.668;19.530;2022-10-16T08:40:39;98410.38;;;15.13;100.00
43039;BME280;62252;50.668;19.530;2022-10-16T08:43:26;98403.28;;;15.36;100.00
43039;BME280;62252;50.668;19.530;2022-10-16T08:46:08;98409.06;;;15.41;100.00
43039;BME280;62252;50.668;19.530;2022-10-16T08:48:45;98421.50;;;15.40;100.00
43039;BME280;62252;50.668;19.530;2022-10-16T08:51:18;98415.69;;;15.46;100.00
43039;BME280;62252;50.668;19.530;2022-10-16T08:59:43;98427.34;;;15.22;100.00
43039;BME280;62252;50.668;19.530;2022-10-16T09:08:48;98435.50;;;15.08;100.00
43039;BME280;62252;50.668;19.530;2022-10-16T09:11:47;98442.44;;;15.21;100.00
43039;BME280;62252;50.668;19.530;2022-10-16T09:17:36;98444.25;;;15.32;100.00
43039;BME280;62252;50.668;19.530;2022-10-16T09:23:30;98441.88;;;15.84;100.00
43039;BME280;62252;50.668;19.530;2022-10-16T09:28:57;98441.88;;;15.62;100.00
43039;BME280;62252;50.668;19.530;2022-10-16T09:31:27;98441.66;;;15.76;100.00
43039;BME280;62252;50.668;19.530;2022-10-16T09:50:00;98471.41;;;15.68;100.00
43039;BME280;62252;50.668;19.530;2022-10-16T09:53:04;98462.88;;;15.87;100.00
43039;BME280;62252;50.668;19.530;2022-10-16T10:04:38;98460.69;;;15.92;100.00
43039;BME280;62252;50.668;19.530;2022-10-16T10:10:34;98461.66;;;16.35;100.00
43039;BME280;62252;50.668;19.530;2022-10-16T10:16:28;98458.66;;;16.28;100.00
43039;BME280;62252;50.668;19.530;2022-10-16T10:22:10;98463.09;;;16.39;100.00
43039;BME280;62252;50.668;19.530;2022-10-16T10:37:46;98457.13;;;16.15;100.00
43039;BME280;62252;50.668;19.530;2022-10-16T10:43:18;98449.66;;;16.51;100.00
43039;BME280;62252;50.668;19.530;2022-10-16T10:45:50;98455.59;;;16.33;100.00
43039;BME280;62252;50.668;19.530;2022-10-16T10:48:26;98453.47;;;16.27;100.00
43039;BME280;62252;50.668;19.530;2022-10-16T10:51:04;98454.06;;;16.19;100.00
43039;BME280;62252;50.668;19.530;2022-10-16T10:57:02;98452.84;;;16.23;100.00
43039;BME280;62252;50.668;19.530;2022-10-16T11:11:40;98448.53;;;16.22;100.00
43039;BME280;62252;50.668;19.530;2022-10-16T11:14:15;98448.19;;;16.05;100.00
43039;BME280;62252;50.668;19.530;2022-10-16T11:17:02;98453.13;;;15.98;100.00
43039;BME280;62252;50.668;19.530;2022-10-16T11:19:35;98459.28;;;16.10;100.00
43039;BME280;62252;50.668;19.530;2022-10-16T11:22:09;98463.22;;;16.04;100.00
43039;BME280;62252;50.668;19.530;2022-10-16T11:24:51;98463.00;;;16.18;100.00
43039;BME280;62252;50.668;19.530;2022-10-16T11:27:25;98461.81;;;16.11;100.00
43039;BME280;62252;50.668;19.530;2022-10-16T11:30:12;98460.97;;;15.89;100.00
43039;BME280;62252;50.668;19.530;2022-10-16T11:32:48;98458.31;;;16.00;100.00
43039;BME280;62252;50.668;19.530;2022-10-16T11:35:21;98453.72;;;16.13;100.00
43039;BME280;62252;50.668;19.530;2022-10-16T11:44:06;98458.53;;;16.30;100.00
43039;BME280;62252;50.668;19.530;2022-10-16T11:46:45;98461.88;;;16.43;100.00
43039;BME280;62252;50.668;19.530;2022-10-16T11:52:55;98460.91;;;16.33;100.00
43039;BME280;62252;50.668;19.530;2022-10-16T11:55:27;98458.19;;;16.12;100.00
43039;BME280;62252;50.668;19.530;2022-10-16T11:58:01;98455.91;;;16.19;100.00
43039;BME280;62252;50.668;19.530;2022-10-16T12:00:34;98459.03;;;16.13;100.00
43039;BME280;62252;50.668;19.530;2022-10-16T12:03:20;98463.34;;;16.25;100.00
43039;BME280;62252;50.668;19.530;2022-10-16T12:05:55;98461.78;;;16.33;100.00
43039;BME280;62252;50.668;19.530;2022-10-16T12:08:28;98459.13;;;16.22;100.00
43039;BME280;62252;50.668;19.530;2022-10-16T12:11:06;98449.06;;;16.90;100.00
43039;BME280;62252;50.668;19.530;2022-10-16T12:13:40;98457.59;;;16.62;100.00
43039;BME280;62252;50.668;19.530;2022-10-16T12:16:20;98457.22;;;16.67;100.00
43039;BME280;62252;50.668;19.530;2022-10-16T12:19:02;98461.25;;;16.61;100.00
43039;BME280;62252;50.668;19.530;2022-10-16T12:21:37;98474.56;;;16.82;100.00
43039;BME280;62252;50.668;19.530;2022-10-16T12:24:06;98470.72;;;16.75;100.00
43039;BME280;62252;50.668;19.530;2022-10-16T12:26:37;98472.53;;;16.74;100.00
43039;BME280;62252;50.668;19.530;2022-10-16T12:29:17;98469.91;;;16.63;100.00
43039;BME280;62252;50.668;19.530;2022-10-16T12:31:51;98468.31;;;16.72;100.00
43039;BME280;62252;50.668;19.530;2022-10-16T12:34:26;98470.88;;;16.62;100.00
43039;BME280;62252;50.668;19.530;2022-10-16T12:37:07;98471.94;;;16.71;100.00
43039;BME280;62252;50.668;19.530;2022-10-16T12:39:39;98467.47;;;16.71;100.00
43039;BME280;62252;50.668;19.530;2022-10-16T12:42:20;98468.72;;;16.56;100.00
43039;BME280;62252;50.668;19.530;2022-10-16T12:47:52;98470.28;;;16.70;100.00
43039;BME280;62252;50.668;19.530;2022-10-16T12:50:27;98466.78;;;16.58;100.00
43039;BME280;62252;50.668;19.530;2022-10-16T12:52:58;98466.50;;;16.72;100.00
43039;BME280;62252;50.668;19.530;2022-10-16T12:55:27;98469.09;;;16.63;100.00
43039;BME280;62252;50.668;19.530;2022-10-16T12:58:32;98469.53;;;16.68;100.00
43039;BME280;62252;50.668;19.530;2022-10-16T13:01:06;98473.75;;;16.70;100.00
43039;BME280;62252;50.668;19.530;2022-10-16T13:09:46;98485.28;;;16.60;100.00
43039;BME280;62252;50.668;19.530;2022-10-16T13:12:24;98483.78;;;16.78;100.00
43039;BME280;62252;50.668;19.530;2022-10-16T13:18:05;98477.63;;;17.09;100.00
43039;BME280;62252;50.668;19.530;2022-10-16T13:20:56;98477.06;;;17.05;100.00
43039;BME280;62252;50.668;19.530;2022-10-16T13:23:30;98474.28;;;17.27;100.00
43039;BME280;62252;50.668;19.530;2022-10-16T13:26:13;98469.34;;;16.91;100.00
43039;BME280;62252;50.668;19.530;2022-10-16T13:29:11;98475.00;;;16.98;100.00
43039;BME280;62252;50.668;19.530;2022-10-16T13:34:50;98484.78;;;16.97;100.00
43039;BME280;62252;50.668;19.530;2022-10-16T13:37:20;98480.78;;;16.92;100.00
43039;BME280;62252;50.668;19.530;2022-10-16T13:39:50;98482.28;;;16.96;100.00
43039;BME280;62252;50.668;19.530;2022-10-16T13:42:24;98489.75;;;16.91;100.00
43039;BME280;62252;50.668;19.530;2022-10-16T13:44:55;98482.75;;;16.90;100.00
43039;BME280;62252;50.668;19.530;2022-10-16T13:47:26;98490.63;;;16.80;100.00
43039;BME280;62252;50.668;19.530;2022-10-16T13:50:01;98486.09;;;16.92;100.00
43039;BME280;62252;50.668;19.530;2022-10-16T13:52:32;98484.19;;;16.94;100.00
43039;BME280;62252;50.668;19.530;2022-10-16T13:55:01;98483.78;;;16.78;100.00
43039;BME280;62252;50.668;19.530;2022-10-16T13:57:33;98485.41;;;17.01;100.00
43039;BME280;62252;50.668;19.530;2022-10-16T14:00:02;98486.38;;;16.89;100.00
43039;BME280;62252;50.668;19.530;2022-10-16T14:02:33;98491.31;;;16.93;100.00
43039;BME280;62252;50.668;19.530;2022-10-16T14:05:03;98480.53;;;17.06;100.00
43039;BME280;62252;50.668;19.530;2022-10-16T14:07:33;98486.25;;;16.90;100.00
43039;BME280;62252;50.668;19.530;2022-10-16T14:10:04;98491.56;;;17.01;100.00
43039;BME280;62252;50.668;19.530;2022-10-16T14:12:36;98492.94;;;16.85;100.00
43039;BME280;62252;50.668;19.530;2022-10-16T14:15:15;98485.22;;;16.82;100.00
43039;BME280;62252;50.668;19.530;2022-10-16T14:17:46;98495.91;;;16.49;100.00
43039;BME280;62252;50.668;19.530;2022-10-16T14:20:18;98483.06;;;16.65;100.00
43039;BME280;62252;50.668;19.530;2022-10-16T14:22:48;98490.94;;;16.55;100.00
43039;BME280;62252;50.668;19.530;2022-10-16T14:25:27;98473.06;;;16.68;100.00
43039;BME280;62252;50.668;19.530;2022-10-16T14:28:00;98480.44;;;16.54;100.00
43039;BME280;62252;50.668;19.530;2022-10-16T14:30:30;98471.88;;;16.61;100.00
43039;BME280;62252;50.668;19.530;2022-10-16T14:33:01;98489.59;;;16.61;100.00
43039;BME280;62252;50.668;19.530;2022-10-16T14:35:32;98501.28;;;16.80;100.00
43039;BME280;62252;50.668;19.530;2022-10-16T14:38:03;98511.00;;;16.48;100.00
43039;BME280;62252;50.668;19.530;2022-10-16T14:40:35;98509.31;;;16.58;100.00
43039;BME280;62252;50.668;19.530;2022-10-16T14:43:14;98510.75;;;16.51;100.00
43039;BME280;62252;50.668;19.530;2022-10-16T14:45:50;98523.19;;;16.51;100.00
43039;BME280;62252;50.668;19.530;2022-10-16T14:48:20;98530.66;;;16.68;100.00
43039;BME280;62252;50.668;19.530;2022-10-16T14:50:50;98521.03;;;16.45;100.00
43039;BME280;62252;50.668;19.530;2022-10-16T14:53:19;98521.25;;;16.53;100.00
43039;BME280;62252;50.668;19.530;2022-10-16T14:55:48;98524.78;;;16.42;100.00
43039;BME280;62252;50.668;19.530;2022-10-16T14:58:20;98526.84;;;16.28;100.00
43039;BME280;62252;50.668;19.530;2022-10-16T15:00:52;98524.66;;;16.33;100.00
43039;BME280;62252;50.668;19.530;2022-10-16T15:03:21;98527.94;;;16.25;100.00
43039;BME280;62252;50.668;19.530;2022-10-16T15:05:51;98529.97;;;16.11;100.00
43039;BME280;62252;50.668;19.530;2022-10-16T15:08:19;98536.44;;;15.96;100.00
43039;BME280;62252;50.668;19.530;2022-10-16T15:10:48;98530.78;;;16.00;100.00
43039;BME280;62252;50.668;19.530;2022-10-16T15:13:20;98523.91;;;15.87;100.00
43039;BME280;62252;50.668;19.530;2022-10-16T15:15:49;98531.75;;;15.77;100.00
43039;BME280;62252;50.668;19.530;2022-10-16T15:18:19;98535.38;;;15.76;100.00
43039;BME280;62252;50.668;19.530;2022-10-16T15:20:49;98530.78;;;15.89;100.00
43039;BME280;62252;50.668;19.530;2022-10-16T15:23:19;98538.38;;;15.72;100.00
43039;BME280;62252;50.668;19.530;2022-10-16T15:25:49;98547.19;;;15.83;100.00
43039;BME280;62252;50.668;19.530;2022-10-16T15:28:23;98536.19;;;15.77;100.00
43039;BME280;62252;50.668;19.530;2022-10-16T15:30:53;98540.31;;;15.92;100.00
43039;BME280;62252;50.668;19.530;2022-10-16T15:33:24;98540.03;;;15.73;100.00
43039;BME280;62252;50.668;19.530;2022-10-16T15:35:58;98542.06;;;15.58;100.00
43039;BME280;62252;50.668;19.530;2022-10-16T15:38:28;98541.16;;;15.81;100.00
43039;BME280;62252;50.668;19.530;2022-10-16T15:40:58;98548.69;;;15.53;100.00
43039;BME280;62252;50.668;19.530;2022-10-16T15:43:30;98540.03;;;15.73;100.00
43039;BME280;62252;50.668;19.530;2022-10-16T15:45:59;98545.19;;;15.52;100.00
43039;BME280;62252;50.668;19.530;2022-10-16T15:48:30;98547.66;;;15.32;100.00
43039;BME280;62252;50.668;19.530;2022-10-16T15:51:04;98551.91;;;15.45;100.00
43039;BME280;62252;50.668;19.530;2022-10-16T15:56:19;98559.22;;;15.31;100.00
43039;BME280;62252;50.668;19.530;2022-10-16T15:58:53;98558.16;;;15.33;100.00
43039;BME280;62252;50.668;19.530;2022-10-16T16:01:22;98554.63;;;15.33;100.00
43039;BME280;62252;50.668;19.530;2022-10-16T16:03:52;98558.22;;;15.21;100.00
43039;BME280;62252;50.668;19.530;2022-10-16T16:06:21;98566.91;;;15.23;100.00
43039;BME280;62252;50.668;19.530;2022-10-16T16:08:51;98570.78;;;15.30;100.00
43039;BME280;62252;50.668;19.530;2022-10-16T16:11:20;98575.53;;;15.14;100.00
43039;BME280;62252;50.668;19.530;2022-10-16T16:13:53;98588.88;;;15.36;100.00
43039;BME280;62252;50.668;19.530;2022-10-16T16:16:22;98589.69;;;15.25;100.00
43039;BME280;62252;50.668;19.530;2022-10-16T16:18:52;98599.56;;;15.11;100.00
43039;BME280;62252;50.668;19.530;2022-10-16T16:21:22;98605.09;;;14.84;100.00
43039;BME280;62252;50.668;19.530;2022-10-16T16:23:51;98599.56;;;15.11;100.00
43039;BME280;62252;50.668;19.530;2022-10-16T16:26:22;98608.66;;;14.96;100.00
43039;BME280;62252;50.668;19.530;2022-10-16T16:28:55;98613.38;;;14.80;100.00
43039;BME280;62252;50.668;19.530;2022-10-16T16:31:25;98611.25;;;14.72;100.00
43039;BME280;62252;50.668;19.530;2022-10-16T16:33:55;98621.94;;;14.83;100.00
43039;BME280;62252;50.668;19.530;2022-10-16T16:36:25;98626.63;;;14.67;100.00
43039;BME280;62252;50.668;19.530;2022-10-16T16:38:54;98621.25;;;14.69;100.00
43039;BME280;62252;50.668;19.530;2022-10-16T16:41:24;98627.84;;;14.38;100.00
43039;BME280;62252;50.668;19.530;2022-10-16T16:44:01;98627.75;;;14.39;100.00
43039;BME280;62252;50.668;19.530;2022-10-16T16:46:31;98626.28;;;14.35;100.00
43039;BME280;62252;50.668;19.530;2022-10-16T16:49:00;98628.31;;;14.19;100.00
43039;BME280;62252;50.668;19.530;2022-10-16T16:51:30;98632.84;;;14.30;100.00
43039;BME280;62252;50.668;19.530;2022-10-16T16:53:59;98634.22;;;14.23;100.00
43039;BME280;62252;50.668;19.530;2022-10-16T16:56:28;98639.69;;;14.07;100.00
43039;BME280;62252;50.668;19.530;2022-10-16T16:59:00;98638.34;;;14.14;100.00
43039;BME280;62252;50.668;19.530;2022-10-16T17:01:30;98644.66;;;13.99;100.00
43039;BME280;62252;50.668;19.530;2022-10-16T17:03:59;98643.19;;;14.08;100.00
43039;BME280;62252;50.668;19.530;2022-10-16T17:06:28;98652.03;;;13.82;100.00
43039;BME280;62252;50.668;19.530;2022-10-16T17:08:58;98646.75;;;13.82;100.00
43039;BME280;62252;50.668;19.530;2022-10-16T17:11:29;98651.28;;;13.80;100.00
43039;BME280;62252;50.668;19.530;2022-10-16T17:17:07;98662.81;;;13.79;100.00
43039;BME280;62252;50.668;19.530;2022-10-16T17:19:36;98666.00;;;13.84;100.00
43039;BME280;62252;50.668;19.530;2022-10-16T17:22:05;98666.31;;;13.79;100.00
43039;BME280;62252;50.668;19.530;2022-10-16T17:40:28;98688.16;;;13.56;100.00
43039;BME280;62252;50.668;19.530;2022-10-16T17:46:02;98700.16;;;13.74;100.00
43039;BME280;62252;50.668;19.530;2022-10-16T17:48:36;98702.56;;;14.04;100.00
43039;BME280;62252;50.668;19.530;2022-10-16T17:54:28;98704.63;;;13.74;100.00
43039;BME280;62252;50.668;19.530;2022-10-16T17:57:01;98702.91;;;13.73;100.00
43039;BME280;62252;50.668;19.530;2022-10-16T17:59:31;98698.19;;;13.90;100.00
43039;BME280;62252;50.668;19.530;2022-10-16T18:02:00;98712.19;;;14.05;100.00
43039;BME280;62252;50.668;19.530;2022-10-16T18:04:32;98713.03;;;14.05;100.00
43039;BME280;62252;50.668;19.530;2022-10-16T18:07:02;98725.47;;;13.91;100.00
43039;BME280;62252;50.668;19.530;2022-10-16T18:09:37;98722.09;;;13.89;100.00